sensor_id;sensor_type;location;lat;lon;timestamp;P1;durP1;ratioP1;P2;durP2;ratioP2
57327;SDS011;43162;51.040;18.244;2022-12-20T00:01:17;25.40;;;12.90;;
57327;SDS011;43162;51.040;18.244;2022-12-20T00:03:47;26.60;;;12.20;;
57327;SDS011;43162;51.040;18.244;2022-12-20T00:06:14;33.70;;;15.10;;
57327;SDS011;43162;51.040;18.244;2022-12-20T00:08:40;32.50;;;15.90;;
57327;SDS011;43162;51.040;18.244;2022-12-20T00:11:06;33.60;;;15.70;;
57327;SDS011;43162;51.040;18.244;2022-12-20T00:13:33;28.80;;;12.20;;
57327;SDS011;43162;51.040;18.244;2022-12-20T00:16:11;35.30;;;14.30;;
57327;SDS011;43162;51.040;18.244;2022-12-20T00:18:38;35.70;;;15.00;;
57327;SDS011;43162;51.040;18.244;2022-12-20T00:21:08;33.90;;;14.60;;
57327;SDS011;43162;51.040;18.244;2022-12-20T00:23:36;27.20;;;11.20;;
57327;SDS011;43162;51.040;18.244;2022-12-20T00:26:03;35.90;;;14.90;;
57327;SDS011;43162;51.040;18.244;2022-12-20T00:28:31;36.00;;;12.90;;
57327;SDS011;43162;51.040;18.244;2022-12-20T00:30:58;28.50;;;13.40;;
57327;SDS011;43162;51.040;18.244;2022-12-20T00:33:23;34.40;;;14.10;;
57327;SDS011;43162;51.040;18.244;2022-12-20T00:35:49;34.10;;;14.90;;
57327;SDS011;43162;51.040;18.244;2022-12-20T00:38:15;34.60;;;15.00;;
57327;SDS011;43162;51.040;18.244;2022-12-20T00:40:41;31.20;;;13.80;;
57327;SDS011;43162;51.040;18.244;2022-12-20T00:43:06;40.90;;;15.70;;
57327;SDS011;43162;51.040;18.244;2022-12-20T00:45:32;36.30;;;14.90;;
57327;SDS011;43162;51.040;18.244;2022-12-20T00:47:57;30.00;;;13.60;;
57327;SDS011;43162;51.040;18.244;2022-12-20T00:50:23;31.80;;;13.10;;
57327;SDS011;43162;51.040;18.244;2022-12-20T00:52:49;37.40;;;15.60;;
57327;SDS011;43162;51.040;18.244;2022-12-20T00:55:14;29.30;;;13.70;;
57327;SDS011;43162;51.040;18.244;2022-12-20T00:57:40;37.10;;;17.30;;
57327;SDS011;43162;51.040;18.244;2022-12-20T01:00:05;35.20;;;13.70;;
57327;SDS011;43162;51.040;18.244;2022-12-20T01:02:31;36.60;;;13.40;;
57327;SDS011;43162;51.040;18.244;2022-12-20T01:04:57;33.40;;;14.90;;
57327;SDS011;43162;51.040;18.244;2022-12-20T01:07:24;25.90;;;12.50;;
57327;SDS011;43162;51.040;18.244;2022-12-20T01:09:50;34.90;;;14.10;;
57327;SDS011;43162;51.040;18.244;2022-12-20T01:12:15;26.40;;;12.90;;
57327;SDS011;43162;51.040;18.244;2022-12-20T01:14:41;29.30;;;14.10;;
57327;SDS011;43162;51.040;18.244;2022-12-20T01:17:07;30.10;;;13.70;;
57327;SDS011;43162;51.040;18.244;2022-12-20T01:19:32;36.40;;;15.30;;
57327;SDS011;43162;51.040;18.244;2022-12-20T01:21:58;38.50;;;15.60;;
57327;SDS011;43162;51.040;18.244;2022-12-20T01:24:23;36.70;;;14.40;;
57327;SDS011;43162;51.040;18.244;2022-12-20T01:26:49;37.00;;;16.50;;
57327;SDS011;43162;51.040;18.244;2022-12-20T01:29:15;28.40;;;12.50;;
57327;SDS011;43162;51.040;18.244;2022-12-20T01:31:40;44.40;;;17.00;;
57327;SDS011;43162;51.040;18.244;2022-12-20T01:34:06;32.20;;;13.10;;
57327;SDS011;43162;51.040;18.244;2022-12-20T01:36:32;32.30;;;14.30;;
57327;SDS011;43162;51.040;18.244;2022-12-20T01:39:00;27.60;;;13.50;;
57327;SDS011;43162;51.040;18.244;2022-12-20T01:41:28;30.40;;;13.90;;
57327;SDS011;43162;51.040;18.244;2022-12-20T01:43:59;32.60;;;14.10;;
57327;SDS011;43162;51.040;18.244;2022-12-20T01:46:26;31.50;;;13.90;;
57327;SDS011;43162;51.040;18.244;2022-12-20T01:54:50;26.80;;;12.90;;
57327;SDS011;43162;51.040;18.244;2022-12-20T01:57:23;33.00;;;14.50;;
57327;SDS011;43162;51.040;18.244;2022-12-20T01:59:51;33.10;;;13.90;;
57327;SDS011;43162;51.040;18.244;2022-12-20T02:02:18;41.50;;;18.10;;
57327;SDS011;43162;51.040;18.244;2022-12-20T02:04:43;34.90;;;15.90;;
57327;SDS011;43162;51.040;18.244;2022-12-20T02:07:10;35.20;;;16.90;;
57327;SDS011;43162;51.040;18.244;2022-12-20T02:09:38;39.50;;;18.40;;
57327;SDS011;43162;51.040;18.244;2022-12-20T02:22:38;30.10;;;14.30;;
57327;SDS011;43162;51.040;18.244;2022-12-20T02:31:10;39.80;;;16.30;;
57327;SDS011;43162;51.040;18.244;2022-12-20T02:33:41;37.40;;;15.60;;
57327;SDS011;43162;51.040;18.244;2022-12-20T02:36:08;34.40;;;15.80;;
57327;SDS011;43162;51.040;18.244;2022-12-20T02:38:35;35.20;;;14.60;;
57327;SDS011;43162;51.040;18.244;2022-12-20T02:43:27;25.50;;;10.90;;
57327;SDS011;43162;51.040;18.244;2022-12-20T02:46:12;29.80;;;12.30;;
57327;SDS011;43162;51.040;18.244;2022-12-20T02:48:40;31.40;;;14.90;;
57327;SDS011;43162;51.040;18.244;2022-12-20T02:51:06;29.60;;;13.30;;
57327;SDS011;43162;51.040;18.244;2022-12-20T02:53:33;33.90;;;14.50;;
57327;SDS011;43162;51.040;18.244;2022-12-20T02:56:01;30.30;;;13.20;;
57327;SDS011;43162;51.040;18.244;2022-12-20T02:58:46;28.80;;;13.90;;
57327;SDS011;43162;51.040;18.244;2022-12-20T03:01:26;34.60;;;14.20;;
57327;SDS011;43162;51.040;18.244;2022-12-20T03:03:55;32.00;;;13.60;;
57327;SDS011;43162;51.040;18.244;2022-12-20T03:06:22;25.90;;;11.90;;
57327;SDS011;43162;51.040;18.244;2022-12-20T03:08:48;36.50;;;15.00;;
57327;SDS011;43162;51.040;18.244;2022-12-20T03:11:13;33.00;;;12.90;;
57327;SDS011;43162;51.040;18.244;2022-12-20T03:13:39;37.60;;;16.50;;
57327;SDS011;43162;51.040;18.244;2022-12-20T03:16:05;29.90;;;12.80;;
57327;SDS011;43162;51.040;18.244;2022-12-20T03:18:31;36.50;;;14.60;;
57327;SDS011;43162;51.040;18.244;2022-12-20T03:20:56;35.80;;;15.60;;
57327;SDS011;43162;51.040;18.244;2022-12-20T03:23:22;30.10;;;14.10;;
57327;SDS011;43162;51.040;18.244;2022-12-20T03:25:48;34.30;;;14.90;;
57327;SDS011;43162;51.040;18.244;2022-12-20T03:28:13;34.30;;;15.10;;
57327;SDS011;43162;51.040;18.244;2022-12-20T03:30:39;34.80;;;15.40;;
57327;SDS011;43162;51.040;18.244;2022-12-20T03:33:05;34.30;;;13.00;;
57327;SDS011;43162;51.040;18.244;2022-12-20T03:35:30;38.80;;;16.70;;
57327;SDS011;43162;51.040;18.244;2022-12-20T03:37:57;35.10;;;13.90;;
57327;SDS011;43162;51.040;18.244;2022-12-20T03:40:23;32.30;;;14.40;;
57327;SDS011;43162;51.040;18.244;2022-12-20T03:42:48;34.70;;;14.70;;
57327;SDS011;43162;51.040;18.244;2022-12-20T03:45:13;38.80;;;16.70;;
57327;SDS011;43162;51.040;18.244;2022-12-20T03:47:39;40.60;;;17.10;;
57327;SDS011;43162;51.040;18.244;2022-12-20T03:50:05;57.10;;;19.80;;
57327;SDS011;43162;51.040;18.244;2022-12-20T03:52:31;32.10;;;13.70;;
57327;SDS011;43162;51.040;18.244;2022-12-20T03:54:57;90.10;;;29.50;;
57327;SDS011;43162;51.040;18.244;2022-12-20T03:57:23;56.40;;;21.70;;
57327;SDS011;43162;51.040;18.244;2022-12-20T03:59:49;44.90;;;16.00;;
57327;SDS011;43162;51.040;18.244;2022-12-20T04:02:14;31.00;;;13.80;;
57327;SDS011;43162;51.040;18.244;2022-12-20T04:04:40;34.70;;;14.60;;
57327;SDS011;43162;51.040;18.244;2022-12-20T04:07:05;33.20;;;15.00;;
57327;SDS011;43162;51.040;18.244;2022-12-20T04:09:31;37.40;;;14.70;;
57327;SDS011;43162;51.040;18.244;2022-12-20T04:11:56;39.90;;;15.90;;
57327;SDS011;43162;51.040;18.244;2022-12-20T04:14:25;36.30;;;15.90;;
57327;SDS011;43162;51.040;18.244;2022-12-20T04:16:50;47.00;;;17.50;;
57327;SDS011;43162;51.040;18.244;2022-12-20T04:19:16;49.50;;;17.80;;
57327;SDS011;43162;51.040;18.244;2022-12-20T04:21:41;46.60;;;20.30;;
57327;SDS011;43162;51.040;18.244;2022-12-20T04:24:09;47.50;;;18.20;;
57327;SDS011;43162;51.040;18.244;2022-12-20T04:26:35;41.90;;;16.50;;
57327;SDS011;43162;51.040;18.244;2022-12-20T04:29:01;43.20;;;18.90;;
57327;SDS011;43162;51.040;18.244;2022-12-20T04:31:26;59.40;;;21.00;;
57327;SDS011;43162;51.040;18.244;2022-12-20T04:33:52;53.40;;;21.10;;
57327;SDS011;43162;51.040;18.244;2022-12-20T04:36:17;45.90;;;19.90;;
57327;SDS011;43162;51.040;18.244;2022-12-20T04:38:43;51.10;;;20.80;;
57327;SDS011;43162;51.040;18.244;2022-12-20T04:41:08;61.20;;;22.60;;
57327;SDS011;43162;51.040;18.244;2022-12-20T04:43:35;55.80;;;23.30;;
57327;SDS011;43162;51.040;18.244;2022-12-20T04:46:00;45.60;;;19.60;;
57327;SDS011;43162;51.040;18.244;2022-12-20T04:48:26;37.80;;;15.70;;
57327;SDS011;43162;51.040;18.244;2022-12-20T04:50:52;38.00;;;18.10;;
57327;SDS011;43162;51.040;18.244;2022-12-20T04:53:19;32.20;;;15.80;;
57327;SDS011;43162;51.040;18.244;2022-12-20T04:56:03;41.50;;;17.90;;
57327;SDS011;43162;51.040;18.244;2022-12-20T04:58:29;43.20;;;17.70;;
57327;SDS011;43162;51.040;18.244;2022-12-20T05:00:54;42.80;;;17.00;;
57327;SDS011;43162;51.040;18.244;2022-12-20T05:03:20;44.20;;;17.70;;
57327;SDS011;43162;51.040;18.244;2022-12-20T05:05:47;51.50;;;17.50;;
57327;SDS011;43162;51.040;18.244;2022-12-20T05:08:12;46.00;;;14.90;;
57327;SDS011;43162;51.040;18.244;2022-12-20T05:10:38;45.90;;;16.20;;
57327;SDS011;43162;51.040;18.244;2022-12-20T05:13:03;39.80;;;16.60;;
57327;SDS011;43162;51.040;18.244;2022-12-20T05:15:29;50.20;;;18.80;;
57327;SDS011;43162;51.040;18.244;2022-12-20T05:17:54;50.10;;;18.00;;
57327;SDS011;43162;51.040;18.244;2022-12-20T05:20:26;49.20;;;18.60;;
57327;SDS011;43162;51.040;18.244;2022-12-20T05:22:53;66.90;;;24.30;;
57327;SDS011;43162;51.040;18.244;2022-12-20T05:25:38;48.50;;;19.20;;
57327;SDS011;43162;51.040;18.244;2022-12-20T05:28:24;42.50;;;16.90;;
57327;SDS011;43162;51.040;18.244;2022-12-20T05:30:50;30.60;;;13.30;;
57327;SDS011;43162;51.040;18.244;2022-12-20T05:33:16;48.90;;;18.10;;
57327;SDS011;43162;51.040;18.244;2022-12-20T05:35:41;48.50;;;19.30;;
57327;SDS011;43162;51.040;18.244;2022-12-20T05:38:07;47.10;;;19.70;;
57327;SDS011;43162;51.040;18.244;2022-12-20T05:40:41;46.10;;;18.30;;
57327;SDS011;43162;51.040;18.244;2022-12-20T05:43:07;48.20;;;15.20;;
57327;SDS011;43162;51.040;18.244;2022-12-20T05:45:33;45.50;;;18.00;;
57327;SDS011;43162;51.040;18.244;2022-12-20T05:48:00;37.20;;;15.40;;
57327;SDS011;43162;51.040;18.244;2022-12-20T05:52:55;41.20;;;15.50;;
57327;SDS011;43162;51.040;18.244;2022-12-20T05:55:21;40.30;;;14.20;;
57327;SDS011;43162;51.040;18.244;2022-12-20T05:57:55;41.50;;;17.10;;
57327;SDS011;43162;51.040;18.244;2022-12-20T06:00:21;44.70;;;17.90;;
57327;SDS011;43162;51.040;18.244;2022-12-20T06:02:47;50.90;;;18.00;;
57327;SDS011;43162;51.040;18.244;2022-12-20T06:05:12;36.00;;;15.30;;
57327;SDS011;43162;51.040;18.244;2022-12-20T06:07:38;41.40;;;17.50;;
57327;SDS011;43162;51.040;18.244;2022-12-20T06:10:04;37.90;;;14.10;;
57327;SDS011;43162;51.040;18.244;2022-12-20T06:12:31;42.40;;;16.40;;
57327;SDS011;43162;51.040;18.244;2022-12-20T06:14:57;50.50;;;18.80;;
57327;SDS011;43162;51.040;18.244;2022-12-20T06:17:22;44.80;;;18.20;;
57327;SDS011;43162;51.040;18.244;2022-12-20T06:19:49;42.20;;;18.50;;
57327;SDS011;43162;51.040;18.244;2022-12-20T06:22:16;44.30;;;18.40;;
57327;SDS011;43162;51.040;18.244;2022-12-20T06:24:43;44.10;;;16.50;;
57327;SDS011;43162;51.040;18.244;2022-12-20T06:27:10;48.50;;;18.20;;
57327;SDS011;43162;51.040;18.244;2022-12-20T06:29:36;44.20;;;17.90;;
57327;SDS011;43162;51.040;18.244;2022-12-20T06:32:02;47.20;;;18.40;;
57327;SDS011;43162;51.040;18.244;2022-12-20T06:34:30;44.30;;;16.90;;
57327;SDS011;43162;51.040;18.244;2022-12-20T06:36:56;28.20;;;11.40;;
57327;SDS011;43162;51.040;18.244;2022-12-20T06:39:21;39.10;;;16.40;;
57327;SDS011;43162;51.040;18.244;2022-12-20T06:41:47;40.80;;;16.30;;
57327;SDS011;43162;51.040;18.244;2022-12-20T06:44:13;43.60;;;18.20;;
57327;SDS011;43162;51.040;18.244;2022-12-20T06:46:39;51.70;;;19.90;;
57327;SDS011;43162;51.040;18.244;2022-12-20T06:49:05;50.80;;;18.60;;
57327;SDS011;43162;51.040;18.244;2022-12-20T06:51:30;44.20;;;15.50;;
57327;SDS011;43162;51.040;18.244;2022-12-20T06:53:56;41.70;;;15.70;;
57327;SDS011;43162;51.040;18.244;2022-12-20T06:56:21;51.00;;;20.40;;
57327;SDS011;43162;51.040;18.244;2022-12-20T06:58:47;55.30;;;18.70;;
57327;SDS011;43162;51.040;18.244;2022-12-20T07:01:12;46.40;;;18.00;;
57327;SDS011;43162;51.040;18.244;2022-12-20T07:03:38;44.30;;;18.40;;
57327;SDS011;43162;51.040;18.244;2022-12-20T07:06:06;53.70;;;18.80;;
57327;SDS011;43162;51.040;18.244;2022-12-20T07:08:31;55.70;;;20.60;;
57327;SDS011;43162;51.040;18.244;2022-12-20T07:11:04;52.40;;;18.30;;
57327;SDS011;43162;51.040;18.244;2022-12-20T07:13:31;42.30;;;17.60;;
57327;SDS011;43162;51.040;18.244;2022-12-20T07:15:57;44.20;;;18.20;;
57327;SDS011;43162;51.040;18.244;2022-12-20T07:18:24;43.90;;;18.80;;
57327;SDS011;43162;51.040;18.244;2022-12-20T07:20:58;47.40;;;18.30;;
57327;SDS011;43162;51.040;18.244;2022-12-20T07:23:24;44.30;;;18.40;;
57327;SDS011;43162;51.040;18.244;2022-12-20T07:25:53;41.50;;;18.20;;
57327;SDS011;43162;51.040;18.244;2022-12-20T07:28:25;51.70;;;20.10;;
57327;SDS011;43162;51.040;18.244;2022-12-20T07:30:52;51.00;;;21.50;;
57327;SDS011;43162;51.040;18.244;2022-12-20T07:33:18;44.10;;;18.50;;
57327;SDS011;43162;51.040;18.244;2022-12-20T07:35:44;49.10;;;19.90;;
57327;SDS011;43162;51.040;18.244;2022-12-20T07:38:13;41.70;;;18.30;;
57327;SDS011;43162;51.040;18.244;2022-12-20T07:40:39;47.60;;;19.80;;
57327;SDS011;43162;51.040;18.244;2022-12-20T07:43:07;49.80;;;18.60;;
57327;SDS011;43162;51.040;18.244;2022-12-20T07:45:36;34.40;;;14.90;;
57327;SDS011;43162;51.040;18.244;2022-12-20T07:48:05;49.60;;;19.40;;
57327;SDS011;43162;51.040;18.244;2022-12-20T07:50:34;50.30;;;20.30;;
57327;SDS011;43162;51.040;18.244;2022-12-20T07:53:00;48.60;;;18.00;;
57327;SDS011;43162;51.040;18.244;2022-12-20T07:55:28;50.40;;;20.40;;
57327;SDS011;43162;51.040;18.244;2022-12-20T07:57:56;45.10;;;19.50;;
57327;SDS011;43162;51.040;18.244;2022-12-20T08:00:26;51.00;;;19.20;;
57327;SDS011;43162;51.040;18.244;2022-12-20T08:02:54;51.90;;;18.20;;
57327;SDS011;43162;51.040;18.244;2022-12-20T08:05:25;53.40;;;21.60;;
57327;SDS011;43162;51.040;18.244;2022-12-20T08:07:51;43.90;;;19.50;;
57327;SDS011;43162;51.040;18.244;2022-12-20T08:10:18;46.70;;;20.40;;
57327;SDS011;43162;51.040;18.244;2022-12-20T08:12:45;52.40;;;19.50;;
57327;SDS011;43162;51.040;18.244;2022-12-20T08:15:12;48.60;;;21.40;;
57327;SDS011;43162;51.040;18.244;2022-12-20T08:17:38;62.30;;;23.50;;
57327;SDS011;43162;51.040;18.244;2022-12-20T08:20:04;75.60;;;26.90;;
57327;SDS011;43162;51.040;18.244;2022-12-20T08:22:31;54.20;;;23.00;;
57327;SDS011;43162;51.040;18.244;2022-12-20T08:24:57;57.50;;;24.90;;
57327;SDS011;43162;51.040;18.244;2022-12-20T08:27:22;67.30;;;29.40;;
57327;SDS011;43162;51.040;18.244;2022-12-20T08:29:47;101.70;;;36.10;;
57327;SDS011;43162;51.040;18.244;2022-12-20T08:32:14;94.60;;;32.50;;
57327;SDS011;43162;51.040;18.244;2022-12-20T08:34:40;103.20;;;32.20;;
57327;SDS011;43162;51.040;18.244;2022-12-20T08:37:06;111.30;;;34.80;;
57327;SDS011;43162;51.040;18.244;2022-12-20T08:39:32;152.10;;;41.60;;
57327;SDS011;43162;51.040;18.244;2022-12-20T08:41:58;181.10;;;44.10;;
57327;SDS011;43162;51.040;18.244;2022-12-20T08:44:24;144.80;;;40.70;;
57327;SDS011;43162;51.040;18.244;2022-12-20T08:46:50;163.20;;;41.10;;
57327;SDS011;43162;51.040;18.244;2022-12-20T08:49:16;170.40;;;39.10;;
57327;SDS011;43162;51.040;18.244;2022-12-20T08:51:41;111.00;;;33.80;;
57327;SDS011;43162;51.040;18.244;2022-12-20T08:54:07;110.00;;;32.00;;
57327;SDS011;43162;51.040;18.244;2022-12-20T08:56:32;64.80;;;22.40;;
57327;SDS011;43162;51.040;18.244;2022-12-20T08:58:58;97.00;;;30.00;;
57327;SDS011;43162;51.040;18.244;2022-12-20T09:01:23;98.40;;;28.40;;
57327;SDS011;43162;51.040;18.244;2022-12-20T09:03:51;100.60;;;28.60;;
57327;SDS011;43162;51.040;18.244;2022-12-20T09:06:20;80.60;;;27.40;;
57327;SDS011;43162;51.040;18.244;2022-12-20T09:08:46;70.40;;;22.90;;
57327;SDS011;43162;51.040;18.244;2022-12-20T09:11:21;74.70;;;26.10;;
57327;SDS011;43162;51.040;18.244;2022-12-20T09:13:48;81.70;;;28.30;;
57327;SDS011;43162;51.040;18.244;2022-12-20T09:16:17;84.70;;;28.00;;
57327;SDS011;43162;51.040;18.244;2022-12-20T09:18:47;90.70;;;27.60;;
57327;SDS011;43162;51.040;18.244;2022-12-20T09:21:16;80.40;;;28.40;;
57327;SDS011;43162;51.040;18.244;2022-12-20T09:23:42;71.10;;;25.60;;
57327;SDS011;43162;51.040;18.244;2022-12-20T09:26:10;79.40;;;25.80;;
57327;SDS011;43162;51.040;18.244;2022-12-20T09:28:37;59.10;;;22.70;;
57327;SDS011;43162;51.040;18.244;2022-12-20T09:31:04;80.40;;;28.50;;
57327;SDS011;43162;51.040;18.244;2022-12-20T09:33:31;95.40;;;34.70;;
57327;SDS011;43162;51.040;18.244;2022-12-20T09:35:58;82.50;;;31.20;;
57327;SDS011;43162;51.040;18.244;2022-12-20T09:38:25;71.40;;;27.50;;
57327;SDS011;43162;51.040;18.244;2022-12-20T09:40:55;85.80;;;29.90;;
57327;SDS011;43162;51.040;18.244;2022-12-20T09:43:23;62.30;;;24.30;;
57327;SDS011;43162;51.040;18.244;2022-12-20T09:45:59;66.40;;;26.20;;
57327;SDS011;43162;51.040;18.244;2022-12-20T09:51:08;58.20;;;23.70;;
57327;SDS011;43162;51.040;18.244;2022-12-20T09:56:36;60.10;;;22.20;;
57327;SDS011;43162;51.040;18.244;2022-12-20T09:59:13;99.80;;;36.90;;
57327;SDS011;43162;51.040;18.244;2022-12-20T10:01:42;58.40;;;24.40;;
57327;SDS011;43162;51.040;18.244;2022-12-20T10:04:28;54.30;;;24.30;;
57327;SDS011;43162;51.040;18.244;2022-12-20T10:25:37;57.20;;;25.30;;
57327;SDS011;43162;51.040;18.244;2022-12-20T10:28:09;48.20;;;22.50;;
57327;SDS011;43162;51.040;18.244;2022-12-20T10:30:36;53.80;;;23.00;;
57327;SDS011;43162;51.040;18.244;2022-12-20T10:33:02;49.10;;;21.90;;
57327;SDS011;43162;51.040;18.244;2022-12-20T10:35:38;42.30;;;17.50;;
57327;SDS011;43162;51.040;18.244;2022-12-20T10:38:06;58.80;;;25.10;;
57327;SDS011;43162;51.040;18.244;2022-12-20T10:40:38;57.40;;;22.60;;
57327;SDS011;43162;51.040;18.244;2022-12-20T10:43:05;58.80;;;22.80;;
57327;SDS011;43162;51.040;18.244;2022-12-20T10:45:35;56.60;;;22.00;;
57327;SDS011;43162;51.040;18.244;2022-12-20T10:48:06;51.30;;;18.90;;
57327;SDS011;43162;51.040;18.244;2022-12-20T10:50:58;56.80;;;21.70;;
57327;SDS011;43162;51.040;18.244;2022-12-20T10:53:27;45.70;;;18.60;;
57327;SDS011;43162;51.040;18.244;2022-12-20T10:56:04;51.60;;;22.30;;
57327;SDS011;43162;51.040;18.244;2022-12-20T10:58:36;44.40;;;21.60;;
57327;SDS011;43162;51.040;18.244;2022-12-20T11:01:04;53.70;;;22.60;;
57327;SDS011;43162;51.040;18.244;2022-12-20T11:06:21;50.40;;;22.30;;
57327;SDS011;43162;51.040;18.244;2022-12-20T11:08:48;60.40;;;26.80;;
57327;SDS011;43162;51.040;18.244;2022-12-20T11:11:21;52.10;;;25.00;;
57327;SDS011;43162;51.040;18.244;2022-12-20T11:13:50;38.90;;;19.10;;
57327;SDS011;43162;51.040;18.244;2022-12-20T11:16:32;46.00;;;21.10;;
57327;SDS011;43162;51.040;18.244;2022-12-20T11:22:01;69.00;;;30.70;;
57327;SDS011;43162;51.040;18.244;2022-12-20T11:24:37;86.70;;;34.20;;
57327;SDS011;43162;51.040;18.244;2022-12-20T11:30:24;73.40;;;28.70;;
57327;SDS011;43162;51.040;18.244;2022-12-20T11:33:10;71.30;;;27.40;;
57327;SDS011;43162;51.040;18.244;2022-12-20T11:35:45;64.20;;;27.80;;
57327;SDS011;43162;51.040;18.244;2022-12-20T11:51:57;46.00;;;22.40;;
57327;SDS011;43162;51.040;18.244;2022-12-20T11:54:34;46.20;;;22.50;;
57327;SDS011;43162;51.040;18.244;2022-12-20T11:57:12;52.80;;;22.00;;
57327;SDS011;43162;51.040;18.244;2022-12-20T11:59:47;50.60;;;22.40;;
57327;SDS011;43162;51.040;18.244;2022-12-20T12:02:21;38.60;;;19.80;;
57327;SDS011;43162;51.040;18.244;2022-12-20T12:07:26;42.80;;;19.30;;
57327;SDS011;43162;51.040;18.244;2022-12-20T12:09:56;44.70;;;19.50;;
57327;SDS011;43162;51.040;18.244;2022-12-20T12:12:32;46.80;;;22.10;;
57327;SDS011;43162;51.040;18.244;2022-12-20T12:15:05;47.20;;;21.30;;
57327;SDS011;43162;51.040;18.244;2022-12-20T12:23:28;41.60;;;19.00;;
57327;SDS011;43162;51.040;18.244;2022-12-20T12:25:58;39.30;;;18.40;;
57327;SDS011;43162;51.040;18.244;2022-12-20T12:28:30;47.20;;;22.00;;
57327;SDS011;43162;51.040;18.244;2022-12-20T12:30:57;46.20;;;19.60;;
57327;SDS011;43162;51.040;18.244;2022-12-20T12:33:29;50.20;;;23.10;;
57327;SDS011;43162;51.040;18.244;2022-12-20T12:38:45;58.10;;;26.00;;
57327;SDS011;43162;51.040;18.244;2022-12-20T12:44:01;51.90;;;21.70;;
57327;SDS011;43162;51.040;18.244;2022-12-20T12:46:47;43.80;;;21.00;;
57327;SDS011;43162;51.040;18.244;2022-12-20T12:49:20;44.50;;;19.40;;
57327;SDS011;43162;51.040;18.244;2022-12-20T12:52:05;43.40;;;20.60;;
57327;SDS011;43162;51.040;18.244;2022-12-20T12:54:35;46.50;;;22.40;;
57327;SDS011;43162;51.040;18.244;2022-12-20T12:57:06;38.80;;;19.80;;
57327;SDS011;43162;51.040;18.244;2022-12-20T13:04:51;43.20;;;18.80;;
57327;SDS011;43162;51.040;18.244;2022-12-20T13:09:57;37.80;;;17.10;;
57327;SDS011;43162;51.040;18.244;2022-12-20T13:17:58;41.40;;;19.80;;
57327;SDS011;43162;51.040;18.244;2022-12-20T13:20:26;46.30;;;21.80;;
57327;SDS011;43162;51.040;18.244;2022-12-20T13:25:35;48.70;;;20.70;;
57327;SDS011;43162;51.040;18.244;2022-12-20T13:33:38;70.10;;;26.10;;
57327;SDS011;43162;51.040;18.244;2022-12-20T13:46:48;57.30;;;22.30;;
57327;SDS011;43162;51.040;18.244;2022-12-20T13:49:26;44.00;;;19.20;;
57327;SDS011;43162;51.040;18.244;2022-12-20T13:54:59;68.30;;;25.50;;
57327;SDS011;43162;51.040;18.244;2022-12-20T13:57:31;72.70;;;25.60;;
57327;SDS011;43162;51.040;18.244;2022-12-20T13:59:59;72.10;;;26.10;;
57327;SDS011;43162;51.040;18.244;2022-12-20T14:02:29;76.70;;;30.10;;
57327;SDS011;43162;51.040;18.244;2022-12-20T14:05:04;66.50;;;25.30;;
57327;SDS011;43162;51.040;18.244;2022-12-20T14:07:38;57.70;;;22.60;;
57327;SDS011;43162;51.040;18.244;2022-12-20T14:10:15;55.70;;;23.60;;
57327;SDS011;43162;51.040;18.244;2022-12-20T14:12:46;59.30;;;23.70;;
57327;SDS011;43162;51.040;18.244;2022-12-20T14:17:51;63.70;;;27.60;;
57327;SDS011;43162;51.040;18.244;2022-12-20T14:20:19;50.30;;;24.10;;
57327;SDS011;43162;51.040;18.244;2022-12-20T14:27:56;50.60;;;22.20;;
57327;SDS011;43162;51.040;18.244;2022-12-20T14:30:27;41.40;;;20.70;;
57327;SDS011;43162;51.040;18.244;2022-12-20T14:32:56;46.40;;;20.40;;
57327;SDS011;43162;51.040;18.244;2022-12-20T14:35:23;47.60;;;22.20;;
57327;SDS011;43162;51.040;18.244;2022-12-20T14:37:57;49.60;;;20.70;;
57327;SDS011;43162;51.040;18.244;2022-12-20T14:40:24;45.70;;;21.50;;
57327;SDS011;43162;51.040;18.244;2022-12-20T14:42:54;52.70;;;21.00;;
57327;SDS011;43162;51.040;18.244;2022-12-20T14:45:25;40.90;;;19.00;;
57327;SDS011;43162;51.040;18.244;2022-12-20T14:47:56;43.00;;;18.60;;
57327;SDS011;43162;51.040;18.244;2022-12-20T14:52:59;40.60;;;20.60;;
57327;SDS011;43162;51.040;18.244;2022-12-20T14:55:29;50.40;;;19.70;;
57327;SDS011;43162;51.040;18.244;2022-12-20T14:58:01;48.30;;;20.50;;
57327;SDS011;43162;51.040;18.244;2022-12-20T15:00:32;47.30;;;19.40;;
57327;SDS011;43162;51.040;18.244;2022-12-20T15:05:56;48.00;;;20.20;;
57327;SDS011;43162;51.040;18.244;2022-12-20T15:08:32;59.10;;;23.30;;
57327;SDS011;43162;51.040;18.244;2022-12-20T15:10:59;47.20;;;22.80;;
57327;SDS011;43162;51.040;18.244;2022-12-20T15:13:36;47.20;;;22.30;;
57327;SDS011;43162;51.040;18.244;2022-12-20T15:16:16;53.90;;;25.20;;
57327;SDS011;43162;51.040;18.244;2022-12-20T15:18:55;50.90;;;26.10;;
57327;SDS011;43162;51.040;18.244;2022-12-20T15:21:36;64.80;;;29.40;;
57327;SDS011;43162;51.040;18.244;2022-12-20T15:24:22;54.90;;;26.20;;
57327;SDS011;43162;51.040;18.244;2022-12-20T15:26:50;42.80;;;19.30;;
57327;SDS011;43162;51.040;18.244;2022-12-20T15:29:17;41.90;;;19.10;;
57327;SDS011;43162;51.040;18.244;2022-12-20T15:31:44;33.60;;;16.00;;
57327;SDS011;43162;51.040;18.244;2022-12-20T15:34:17;36.70;;;16.00;;
57327;SDS011;43162;51.040;18.244;2022-12-20T15:36:46;49.10;;;20.00;;
57327;SDS011;43162;51.040;18.244;2022-12-20T15:39:12;52.70;;;21.90;;
57327;SDS011;43162;51.040;18.244;2022-12-20T15:41:37;56.80;;;23.50;;
57327;SDS011;43162;51.040;18.244;2022-12-20T15:44:06;53.60;;;23.30;;
57327;SDS011;43162;51.040;18.244;2022-12-20T15:46:37;47.90;;;21.70;;
57327;SDS011;43162;51.040;18.244;2022-12-20T15:49:03;52.80;;;23.40;;
57327;SDS011;43162;51.040;18.244;2022-12-20T15:51:30;47.20;;;20.70;;
57327;SDS011;43162;51.040;18.244;2022-12-20T15:53:58;46.70;;;20.60;;
57327;SDS011;43162;51.040;18.244;2022-12-20T15:56:25;55.50;;;25.90;;
57327;SDS011;43162;51.040;18.244;2022-12-20T15:58:52;52.00;;;22.10;;
57327;SDS011;43162;51.040;18.244;2022-12-20T16:01:21;48.40;;;20.90;;
57327;SDS011;43162;51.040;18.244;2022-12-20T16:03:50;50.10;;;19.90;;
57327;SDS011;43162;51.040;18.244;2022-12-20T16:06:17;44.40;;;19.30;;
57327;SDS011;43162;51.040;18.244;2022-12-20T16:08:43;39.40;;;18.20;;
57327;SDS011;43162;51.040;18.244;2022-12-20T16:11:23;43.30;;;18.40;;
57327;SDS011;43162;51.040;18.244;2022-12-20T16:13:53;41.80;;;18.70;;
57327;SDS011;43162;51.040;18.244;2022-12-20T16:16:21;44.80;;;19.60;;
57327;SDS011;43162;51.040;18.244;2022-12-20T16:18:48;44.70;;;20.60;;
57327;SDS011;43162;51.040;18.244;2022-12-20T16:21:20;48.60;;;22.80;;
57327;SDS011;43162;51.040;18.244;2022-12-20T16:24:09;54.80;;;22.70;;
57327;SDS011;43162;51.040;18.244;2022-12-20T16:26:39;53.60;;;23.20;;
57327;SDS011;43162;51.040;18.244;2022-12-20T16:29:05;52.00;;;21.30;;
57327;SDS011;43162;51.040;18.244;2022-12-20T16:31:33;51.80;;;20.90;;
57327;SDS011;43162;51.040;18.244;2022-12-20T16:34:05;52.20;;;22.60;;